sensor_id;sensor_type;location;lat;lon;timestamp;pressure;altitude;pressure_sealevel;temperature;humidity
66486;BME280;53303;47.476;8.084;2024-03-23T00:53:42;94839.22;;;21.38;44.70
66486;BME280;53303;47.476;8.084;2024-03-23T00:56:09;94847.78;;;21.53;44.61
66486;BME280;53303;47.476;8.084;2024-03-23T00:58:35;94845.78;;;21.54;44.78
66486;BME280;53303;47.476;8.084;2024-03-23T01:01:00;94839.47;;;21.53;44.89
66486;BME280;53303;47.476;8.084;2024-03-23T01:03:30;94801.53;;;21.29;44.85
66486;BME280;53303;47.476;8.084;2024-03-23T01:06:01;94792.66;;;21.30;44.76
66486;BME280;53303;47.476;8.084;2024-03-23T01:08:29;94820.91;;;21.48;44.90
66486;BME280;53303;47.476;8.084;2024-03-23T01:11:01;94829.13;;;21.54;45.01
66486;BME280;53303;47.476;8.084;2024-03-23T01:13:27;94833.91;;;21.53;45.04
66486;BME280;53303;47.476;8.084;2024-03-23T01:15:55;94819.50;;;21.55;44.88
66486;BME280;53303;47.476;8.084;2024-03-23T01:18:21;94746.41;;;21.06;45.08
66486;BME280;53303;47.476;8.084;2024-03-23T01:20:47;94784.34;;;21.30;45.01
66486;BME280;53303;47.476;8.084;2024-03-23T01:23:14;94801.00;;;21.44;45.23
66486;BME280;53303;47.476;8.084;2024-03-23T01:25:40;94799.31;;;21.41;44.85
66486;BME280;53303;47.476;8.084;2024-03-23T01:28:07;94788.13;;;21.46;44.79
66486;BME280;53303;47.476;8.084;2024-03-23T01:30:36;94724.63;;;20.97;44.90
66486;BME280;53303;47.476;8.084;2024-03-23T01:33:02;94792.53;;;21.55;45.03
66486;BME280;53303;47.476;8.084;2024-03-23T01:35:28;94790.53;;;21.37;45.08
66486;BME280;53303;47.476;8.084;2024-03-23T01:37:54;94798.06;;;21.55;45.05
66486;BME280;53303;47.476;8.084;2024-03-23T01:40:20;94794.53;;;21.55;45.20
66486;BME280;53303;47.476;8.084;2024-03-23T01:43:01;94750.06;;;21.15;45.12
66486;BME280;53303;47.476;8.084;2024-03-23T01:45:34;94748.81;;;21.29;45.18
66486;BME280;53303;47.476;8.084;2024-03-23T01:48:00;94771.06;;;21.56;45.16
66486;BME280;53303;47.476;8.084;2024-03-23T01:50:26;94784.19;;;21.55;44.98
66486;BME280;53303;47.476;8.084;2024-03-23T01:52:53;94775.88;;;21.55;44.98
66486;BME280;53303;47.476;8.084;2024-03-23T01:55:19;94746.34;;;21.39;45.03
66486;BME280;53303;47.476;8.084;2024-03-23T01:57:44;94764.31;;;21.51;45.12
66486;BME280;53303;47.476;8.084;2024-03-23T02:00:10;94744.13;;;21.37;45.17
66486;BME280;53303;47.476;8.084;2024-03-23T02:02:46;94706.53;;;21.23;45.28
66486;BME280;53303;47.476;8.084;2024-03-23T02:05:14;94741.69;;;21.47;45.17
66486;BME280;53303;47.476;8.084;2024-03-23T02:07:41;94740.09;;;21.52;45.24
66486;BME280;53303;47.476;8.084;2024-03-23T02:10:10;94745.53;;;21.57;45.33
66486;BME280;53303;47.476;8.084;2024-03-23T02:12:38;94730.34;;;21.58;45.31
66486;BME280;53303;47.476;8.084;2024-03-23T02:15:04;94735.69;;;21.56;45.46
66486;BME280;53303;47.476;8.084;2024-03-23T02:17:31;94718.38;;;21.37;45.19
66486;BME280;53303;47.476;8.084;2024-03-23T02:19:57;94748.44;;;21.52;45.39
66486;BME280;53303;47.476;8.084;2024-03-23T02:22:25;94745.66;;;21.52;45.08
66486;BME280;53303;47.476;8.084;2024-03-23T02:24:52;94739.78;;;21.55;45.37
66486;BME280;53303;47.476;8.084;2024-03-23T02:27:18;94714.22;;;21.43;45.22
66486;BME280;53303;47.476;8.084;2024-03-23T02:29:48;94692.97;;;21.19;45.41
66486;BME280;53303;47.476;8.084;2024-03-23T02:32:13;94718.50;;;21.44;45.36
66486;BME280;53303;47.476;8.084;2024-03-23T02:34:39;94738.06;;;21.52;45.23
66486;BME280;53303;47.476;8.084;2024-03-23T02:37:11;94732.94;;;21.56;45.43
66486;BME280;53303;47.476;8.084;2024-03-23T02:39:38;94674.84;;;21.18;45.42
66486;BME280;53303;47.476;8.084;2024-03-23T02:42:06;94693.94;;;21.35;45.23
66486;BME280;53303;47.476;8.084;2024-03-23T02:44:34;94702.56;;;21.32;45.36
66486;BME280;53303;47.476;8.084;2024-03-23T02:47:02;94703.03;;;21.36;45.49
66486;BME280;53303;47.476;8.084;2024-03-23T02:49:29;94712.19;;;21.44;45.36
66486;BME280;53303;47.476;8.084;2024-03-23T02:51:55;94697.03;;;21.32;45.58
66486;BME280;53303;47.476;8.084;2024-03-23T02:54:20;94723.75;;;21.48;45.32
66486;BME280;53303;47.476;8.084;2024-03-23T02:56:46;94740.00;;;21.57;45.31
66486;BME280;53303;47.476;8.084;2024-03-23T02:59:13;94680.72;;;21.15;45.42
66486;BME280;53303;47.476;8.084;2024-03-23T03:01:41;94667.16;;;21.11;45.37
66486;BME280;53303;47.476;8.084;2024-03-23T03:04:09;94701.00;;;21.36;45.35
66486;BME280;53303;47.476;8.084;2024-03-23T03:06:34;94694.03;;;21.29;45.29
66486;BME280;53303;47.476;8.084;2024-03-23T03:09:00;94665.53;;;21.16;45.29
66486;BME280;53303;47.476;8.084;2024-03-23T03:11:25;94671.63;;;21.27;45.31
66486;BME280;53303;47.476;8.084;2024-03-23T03:13:51;94697.91;;;21.53;45.57
66486;BME280;53303;47.476;8.084;2024-03-23T03:16:18;94701.00;;;21.49;45.44
66486;BME280;53303;47.476;8.084;2024-03-23T03:18:44;94622.75;;;20.98;45.55
66486;BME280;53303;47.476;8.084;2024-03-23T03:21:11;94675.16;;;21.41;45.43
66486;BME280;53303;47.476;8.084;2024-03-23T03:23:39;94681.91;;;21.46;45.35
66486;BME280;53303;47.476;8.084;2024-03-23T03:26:05;94699.81;;;21.58;45.65
66486;BME280;53303;47.476;8.084;2024-03-23T03:28:35;94651.69;;;21.29;45.44
66486;BME280;53303;47.476;8.084;2024-03-23T03:31:03;94645.94;;;21.27;45.57
66486;BME280;53303;47.476;8.084;2024-03-23T03:33:29;94644.00;;;21.22;45.69
66486;BME280;53303;47.476;8.084;2024-03-23T03:35:57;94653.41;;;21.32;45.69
66486;BME280;53303;47.476;8.084;2024-03-23T03:38:22;94605.47;;;21.05;45.69
66486;BME280;53303;47.476;8.084;2024-03-23T03:40:50;94691.50;;;21.58;45.47
66486;BME280;53303;47.476;8.084;2024-03-23T03:43:17;94669.72;;;21.49;45.63
66486;BME280;53303;47.476;8.084;2024-03-23T03:45:56;94655.19;;;21.43;45.50
66486;BME280;53303;47.476;8.084;2024-03-23T03:48:25;94613.56;;;21.29;45.66
66486;BME280;53303;47.476;8.084;2024-03-23T03:50:54;94638.75;;;21.58;45.69
66486;BME280;53303;47.476;8.084;2024-03-23T03:53:19;94622.34;;;21.47;45.79
66486;BME280;53303;47.476;8.084;2024-03-23T03:55:47;94606.44;;;21.34;45.74
66486;BME280;53303;47.476;8.084;2024-03-23T03:58:17;94613.47;;;21.35;45.68
66486;BME280;53303;47.476;8.084;2024-03-23T04:00:42;94603.13;;;21.36;45.72
66486;BME280;53303;47.476;8.084;2024-03-23T04:03:11;94614.44;;;21.51;45.84
66486;BME280;53303;47.476;8.084;2024-03-23T04:05:36;94611.00;;;21.45;45.51
66486;BME280;53303;47.476;8.084;2024-03-23T04:08:05;94601.66;;;21.48;45.88
66486;BME280;53303;47.476;8.084;2024-03-23T04:10:33;94579.44;;;21.48;45.77
66486;BME280;53303;47.476;8.084;2024-03-23T04:12:58;94552.97;;;21.20;45.77
66486;BME280;53303;47.476;8.084;2024-03-23T04:15:24;94570.25;;;21.40;45.72
66486;BME280;53303;47.476;8.084;2024-03-23T04:17:54;94521.19;;;21.21;46.05
66486;BME280;53303;47.476;8.084;2024-03-23T04:20:21;94560.63;;;21.54;45.59
66486;BME280;53303;47.476;8.084;2024-03-23T04:22:47;94572.13;;;21.58;45.72
66486;BME280;53303;47.476;8.084;2024-03-23T04:25:13;94562.44;;;21.52;45.72
66486;BME280;53303;47.476;8.084;2024-03-23T04:27:40;94565.09;;;21.57;45.80
66486;BME280;53303;47.476;8.084;2024-03-23T04:30:08;94530.47;;;21.24;45.93
66486;BME280;53303;47.476;8.084;2024-03-23T04:32:39;94552.97;;;21.47;45.63
66486;BME280;53303;47.476;8.084;2024-03-23T04:35:05;94554.88;;;21.52;45.71
66486;BME280;53303;47.476;8.084;2024-03-23T04:37:32;94549.84;;;21.51;45.56
66486;BME280;53303;47.476;8.084;2024-03-23T04:40:03;94530.78;;;21.20;45.77
66486;BME280;53303;47.476;8.084;2024-03-23T04:42:31;94547.28;;;21.53;45.81
66486;BME280;53303;47.476;8.084;2024-03-23T04:45:04;94577.91;;;21.34;45.83
66486;BME280;53303;47.476;8.084;2024-03-23T04:47:31;94647.19;;;21.39;46.20
66486;BME280;53303;47.476;8.084;2024-03-23T04:49:56;94633.88;;;21.11;45.95
66486;BME280;53303;47.476;8.084;2024-03-23T04:52:23;94687.97;;;21.44;45.79
66486;BME280;53303;47.476;8.084;2024-03-23T04:54:49;94680.50;;;21.39;45.65
66486;BME280;53303;47.476;8.084;2024-03-23T04:57:14;94609.97;;;20.95;45.58
66486;BME280;53303;47.476;8.084;2024-03-23T04:59:41;94677.28;;;21.35;45.85
66486;BME280;53303;47.476;8.084;2024-03-23T05:02:07;94641.75;;;21.20;45.84
66486;BME280;53303;47.476;8.084;2024-03-23T05:04:37;94685.72;;;21.43;45.89
66486;BME280;53303;47.476;8.084;2024-03-23T05:07:05;94673.03;;;21.34;45.79
66486;BME280;53303;47.476;8.084;2024-03-23T05:09:30;94683.47;;;21.28;45.92
66486;BME280;53303;47.476;8.084;2024-03-23T05:11:56;94674.84;;;21.32;45.87
66486;BME280;53303;47.476;8.084;2024-03-23T05:14:24;94712.34;;;21.52;45.84
66486;BME280;53303;47.476;8.084;2024-03-23T05:16:52;94709.97;;;21.56;45.91
66486;BME280;53303;47.476;8.084;2024-03-23T05:19:18;94701.25;;;21.52;45.87
66486;BME280;53303;47.476;8.084;2024-03-23T05:21:43;94689.47;;;21.45;45.90
66486;BME280;53303;47.476;8.084;2024-03-23T05:24:11;94643.69;;;21.25;45.87
66486;BME280;53303;47.476;8.084;2024-03-23T05:26:37;94669.72;;;21.36;45.84
66486;BME280;53303;47.476;8.084;2024-03-23T05:29:07;94602.94;;;20.94;45.66
66486;BME280;53303;47.476;8.084;2024-03-23T05:31:38;94695.38;;;21.55;45.98
66486;BME280;53303;47.476;8.084;2024-03-23T05:34:04;94621.28;;;20.97;46.12
66486;BME280;53303;47.476;8.084;2024-03-23T05:36:29;94630.78;;;21.15;46.13
66486;BME280;53303;47.476;8.084;2024-03-23T05:38:56;94687.13;;;21.49;45.85
66486;BME280;53303;47.476;8.084;2024-03-23T05:41:21;94635.25;;;21.04;45.75
66486;BME280;53303;47.476;8.084;2024-03-23T05:43:49;94659.25;;;21.15;45.91
66486;BME280;53303;47.476;8.084;2024-03-23T05:46:14;94673.56;;;21.06;46.04
66486;BME280;53303;47.476;8.084;2024-03-23T05:48:39;94683.59;;;21.22;46.23
66486;BME280;53303;47.476;8.084;2024-03-23T05:51:05;94709.75;;;21.27;46.18
66486;BME280;53303;47.476;8.084;2024-03-23T05:53:30;94732.88;;;21.29;46.10
66486;BME280;53303;47.476;8.084;2024-03-23T05:56:02;94761.00;;;21.53;45.91
66486;BME280;53303;47.476;8.084;2024-03-23T05:58:34;94708.94;;;21.00;46.14
66486;BME280;53303;47.476;8.084;2024-03-23T06:01:03;94743.56;;;21.25;45.90
66486;BME280;53303;47.476;8.084;2024-03-23T06:03:30;94746.56;;;21.41;46.02
66486;BME280;53303;47.476;8.084;2024-03-23T06:05:56;94741.88;;;21.36;46.09
66486;BME280;53303;47.476;8.084;2024-03-23T06:08:22;94768.06;;;21.54;45.89
66486;BME280;53303;47.476;8.084;2024-03-23T06:10:48;94756.50;;;21.49;46.12
66486;BME280;53303;47.476;8.084;2024-03-23T06:13:16;94743.88;;;21.35;46.04
66486;BME280;53303;47.476;8.084;2024-03-23T06:15:45;94735.34;;;21.20;46.07
66486;BME280;53303;47.476;8.084;2024-03-23T06:18:11;94786.00;;;21.53;46.03
66486;BME280;53303;47.476;8.084;2024-03-23T06:20:39;94781.94;;;21.54;46.06
66486;BME280;53303;47.476;8.084;2024-03-23T06:23:08;94750.59;;;21.26;46.17
66486;BME280;53303;47.476;8.084;2024-03-23T06:25:36;94747.59;;;21.24;45.92
66486;BME280;53303;47.476;8.084;2024-03-23T06:28:02;94738.97;;;21.15;46.12
66486;BME280;53303;47.476;8.084;2024-03-23T06:30:28;94808.94;;;21.53;46.12
66486;BME280;53303;47.476;8.084;2024-03-23T06:32:54;94731.91;;;21.00;46.05
66486;BME280;53303;47.476;8.084;2024-03-23T06:35:22;94762.78;;;21.23;46.04
66486;BME280;53303;47.476;8.084;2024-03-23T06:37:47;94795.97;;;21.42;46.18
66486;BME280;53303;47.476;8.084;2024-03-23T06:40:14;94805.91;;;21.38;46.13
66486;BME280;53303;47.476;8.084;2024-03-23T06:42:40;94812.00;;;21.36;45.90
66486;BME280;53303;47.476;8.084;2024-03-23T06:45:08;94818.91;;;21.29;45.95
66486;BME280;53303;47.476;8.084;2024-03-23T06:47:36;94781.75;;;21.19;46.07
66486;BME280;53303;47.476;8.084;2024-03-23T06:50:03;94829.00;;;21.46;46.08
66486;BME280;53303;47.476;8.084;2024-03-23T06:52:29;94752.28;;;21.03;46.06
66486;BME280;53303;47.476;8.084;2024-03-23T06:54:54;94823.44;;;21.46;46.01
66486;BME280;53303;47.476;8.084;2024-03-23T06:57:19;94786.75;;;21.07;46.09
66486;BME280;53303;47.476;8.084;2024-03-23T06:59:45;94827.81;;;21.41;46.13
66486;BME280;53303;47.476;8.084;2024-03-23T07:02:13;94825.91;;;21.49;45.74
66486;BME280;53303;47.476;8.084;2024-03-23T07:04:39;94839.44;;;21.40;45.92
66486;BME280;53303;47.476;8.084;2024-03-23T07:07:09;94816.84;;;21.17;45.97
66486;BME280;53303;47.476;8.084;2024-03-23T07:09:35;94826.06;;;21.25;45.41
66486;BME280;53303;47.476;8.084;2024-03-23T07:12:00;94872.78;;;21.21;43.51
66486;BME280;53303;47.476;8.084;2024-03-23T07:14:26;94954.19;;;21.42;41.31
66486;BME280;53303;47.476;8.084;2024-03-23T07:16:51;94875.00;;;21.09;41.01
66486;BME280;53303;47.476;8.084;2024-03-23T07:19:17;94954.56;;;21.33;41.07
66486;BME280;53303;47.476;8.084;2024-03-23T07:21:49;94962.16;;;21.14;40.37
66486;BME280;53303;47.476;8.084;2024-03-23T07:24:17;94985.78;;;21.20;39.24
66486;BME280;53303;47.476;8.084;2024-03-23T07:26:45;95011.88;;;21.11;38.91
66486;BME280;53303;47.476;8.084;2024-03-23T07:29:10;95022.31;;;21.05;38.99
66486;BME280;53303;47.476;8.084;2024-03-23T07:31:36;94988.84;;;20.79;39.44
66486;BME280;53303;47.476;8.084;2024-03-23T07:34:03;95004.22;;;20.80;39.99
66486;BME280;53303;47.476;8.084;2024-03-23T07:36:31;95028.75;;;20.95;40.03
66486;BME280;53303;47.476;8.084;2024-03-23T07:38:56;95052.75;;;21.11;40.34
66486;BME280;53303;47.476;8.084;2024-03-23T07:41:21;95027.00;;;20.91;40.33
66486;BME280;53303;47.476;8.084;2024-03-23T07:43:48;95047.56;;;21.02;40.33
66486;BME280;53303;47.476;8.084;2024-03-23T07:46:15;95030.97;;;20.77;40.52
66486;BME280;53303;47.476;8.084;2024-03-23T07:48:43;95060.81;;;20.90;40.56
66486;BME280;53303;47.476;8.084;2024-03-23T07:53:36;95073.28;;;21.02;40.67
66486;BME280;53303;47.476;8.084;2024-03-23T07:56:11;95111.31;;;21.07;40.80
66486;BME280;53303;47.476;8.084;2024-03-23T07:58:37;95032.91;;;20.58;40.89
66486;BME280;53303;47.476;8.084;2024-03-23T08:01:05;95119.09;;;21.09;41.02
66486;BME280;53303;47.476;8.084;2024-03-23T08:03:37;95090.56;;;20.89;41.05
66486;BME280;53303;47.476;8.084;2024-03-23T08:06:17;95131.25;;;21.06;41.14
66486;BME280;53303;47.476;8.084;2024-03-23T08:08:48;95125.41;;;21.09;41.13
66486;BME280;53303;47.476;8.084;2024-03-23T08:11:14;95132.47;;;21.10;41.08
66486;BME280;53303;47.476;8.084;2024-03-23T08:13:44;95139.28;;;21.09;41.25
66486;BME280;53303;47.476;8.084;2024-03-23T08:16:10;95140.31;;;21.06;41.25
66486;BME280;53303;47.476;8.084;2024-03-23T08:18:35;95094.84;;;20.90;41.60
66486;BME280;53303;47.476;8.084;2024-03-23T08:21:05;95146.06;;;21.08;41.59
66486;BME280;53303;47.476;8.084;2024-03-23T08:23:35;95147.59;;;21.09;41.44
66486;BME280;53303;47.476;8.084;2024-03-23T08:26:09;95106.94;;;20.93;41.63
66486;BME280;53303;47.476;8.084;2024-03-23T08:28:35;95136.50;;;21.09;41.55
66486;BME280;53303;47.476;8.084;2024-03-23T08:31:02;95115.81;;;21.10;41.72
66486;BME280;53303;47.476;8.084;2024-03-23T08:33:28;95103.63;;;20.95;41.82
66486;BME280;53303;47.476;8.084;2024-03-23T08:38:22;95050.34;;;20.52;41.99
66486;BME280;53303;47.476;8.084;2024-03-23T08:41:07;95123.66;;;21.06;41.85
66486;BME280;53303;47.476;8.084;2024-03-23T08:43:35;95136.50;;;21.09;41.89
66486;BME280;53303;47.476;8.084;2024-03-23T08:46:06;95131.75;;;21.04;41.92
66486;BME280;53303;47.476;8.084;2024-03-23T08:48:38;95119.09;;;21.09;42.00
66486;BME280;53303;47.476;8.084;2024-03-23T08:51:12;95104.66;;;20.91;42.17
66486;BME280;53303;47.476;8.084;2024-03-23T08:53:38;95127.75;;;21.00;42.00
66486;BME280;53303;47.476;8.084;2024-03-23T08:56:05;95122.50;;;20.96;41.75
66486;BME280;53303;47.476;8.084;2024-03-23T08:58:34;95142.78;;;21.10;41.96
66486;BME280;53303;47.476;8.084;2024-03-23T09:01:08;95124.59;;;20.90;42.08
66486;BME280;53303;47.476;8.084;2024-03-23T09:03:34;95077.16;;;20.69;42.27
66486;BME280;53303;47.476;8.084;2024-03-23T09:06:10;95100.38;;;20.66;42.26
66486;BME280;53303;47.476;8.084;2024-03-23T09:08:36;95158.75;;;21.04;42.43
66486;BME280;53303;47.476;8.084;2024-03-23T09:11:09;95143.31;;;20.84;42.19
66486;BME280;53303;47.476;8.084;2024-03-23T09:13:37;95149.28;;;20.94;42.19
66486;BME280;53303;47.476;8.084;2024-03-23T09:16:07;95177.59;;;21.11;42.25
66486;BME280;53303;47.476;8.084;2024-03-23T09:18:36;95136.94;;;20.89;42.10
66486;BME280;53303;47.476;8.084;2024-03-23T09:21:11;95156.63;;;20.91;42.14
66486;BME280;53303;47.476;8.084;2024-03-23T09:23:39;95112.47;;;20.68;42.12
66486;BME280;53303;47.476;8.084;2024-03-23T09:26:05;95166.50;;;21.11;42.18
66486;BME280;53303;47.476;8.084;2024-03-23T09:28:32;95171.91;;;20.98;42.57
66486;BME280;53303;47.476;8.084;2024-03-23T09:33:29;95145.56;;;20.85;42.36
66486;BME280;53303;47.476;8.084;2024-03-23T09:35:55;95136.84;;;20.76;42.36
66486;BME280;53303;47.476;8.084;2024-03-23T09:38:22;95099.22;;;20.56;42.38
66486;BME280;53303;47.476;8.084;2024-03-23T09:40:53;95103.19;;;20.60;42.40
66486;BME280;53303;47.476;8.084;2024-03-23T09:43:18;95121.72;;;20.77;42.29
66486;BME280;53303;47.476;8.084;2024-03-23T09:45:45;95150.78;;;20.95;42.54
66486;BME280;53303;47.476;8.084;2024-03-23T09:48:13;95107.44;;;20.67;42.50
66486;BME280;53303;47.476;8.084;2024-03-23T09:50:40;95156.13;;;21.11;42.46
66486;BME280;53303;47.476;8.084;2024-03-23T09:53:10;95118.81;;;20.88;42.48
66486;BME280;53303;47.476;8.084;2024-03-23T09:55:40;95146.25;;;20.91;42.45
66486;BME280;53303;47.476;8.084;2024-03-23T09:58:06;95089.06;;;20.64;42.49
66486;BME280;53303;47.476;8.084;2024-03-23T10:00:32;95140.31;;;21.06;42.56
66486;BME280;53303;47.476;8.084;2024-03-23T10:03:03;95144.75;;;20.90;42.40
66486;BME280;53303;47.476;8.084;2024-03-23T10:05:30;95126.44;;;20.82;42.52
66486;BME280;53303;47.476;8.084;2024-03-23T10:10:43;95136.44;;;20.90;42.71
66486;BME280;53303;47.476;8.084;2024-03-23T10:13:23;95130.88;;;20.66;42.34
66486;BME280;53303;47.476;8.084;2024-03-23T10:15:55;95161.00;;;21.05;42.51
66486;BME280;53303;47.476;8.084;2024-03-23T10:18:21;95142.97;;;20.93;42.69
66486;BME280;53303;47.476;8.084;2024-03-23T10:23:31;95154.09;;;21.12;42.52
66486;BME280;53303;47.476;8.084;2024-03-23T10:29:00;95164.25;;;21.09;42.55
66486;BME280;53303;47.476;8.084;2024-03-23T10:31:30;95163.00;;;21.05;42.57
66486;BME280;53303;47.476;8.084;2024-03-23T10:33:56;95169.03;;;21.09;42.75
66486;BME280;53303;47.476;8.084;2024-03-23T10:36:26;95138.75;;;20.86;42.65
66486;BME280;53303;47.476;8.084;2024-03-23T10:38:53;95179.34;;;21.14;42.38
66486;BME280;53303;47.476;8.084;2024-03-23T10:41:19;95180.13;;;21.09;42.34
66486;BME280;53303;47.476;8.084;2024-03-23T10:43:46;95178.47;;;21.00;42.42
66486;BME280;53303;47.476;8.084;2024-03-23T10:46:12;95171.41;;;20.99;42.42
66486;BME280;53303;47.476;8.084;2024-03-23T10:48:38;95184.75;;;21.01;42.34
66486;BME280;53303;47.476;8.084;2024-03-23T10:51:07;95171.34;;;21.05;42.37
66486;BME280;53303;47.476;8.084;2024-03-23T10:53:33;95174.09;;;21.05;42.18
66486;BME280;53303;47.476;8.084;2024-03-23T10:56:01;95110.22;;;20.67;42.25
66486;BME280;53303;47.476;8.084;2024-03-23T10:58:40;95147.31;;;21.13;42.10
66486;BME280;53303;47.476;8.084;2024-03-23T11:01:06;95103.41;;;20.68;42.29
66486;BME280;53303;47.476;8.084;2024-03-23T11:03:38;95152.84;;;21.13;42.34
66486;BME280;53303;47.476;8.084;2024-03-23T11:06:07;95158.41;;;21.13;42.29
66486;BME280;53303;47.476;8.084;2024-03-23T11:08:39;95076.25;;;20.55;42.04
66486;BME280;53303;47.476;8.084;2024-03-23T11:11:14;95156.88;;;21.12;42.15
66486;BME280;53303;47.476;8.084;2024-03-23T11:13:44;95154.75;;;20.99;42.24
66486;BME280;53303;47.476;8.084;2024-03-23T11:16:14;95178.69;;;21.02;42.13
66486;BME280;53303;47.476;8.084;2024-03-23T11:18:40;95127.56;;;20.73;41.98
66486;BME280;53303;47.476;8.084;2024-03-23T11:21:07;95140.50;;;20.89;42.21
66486;BME280;53303;47.476;8.084;2024-03-23T11:23:32;95132.69;;;20.88;42.10
66486;BME280;53303;47.476;8.084;2024-03-23T11:25:57;95096.56;;;20.69;42.06
66486;BME280;53303;47.476;8.084;2024-03-23T11:28:26;95159.44;;;21.10;42.14
66486;BME280;53303;47.476;8.084;2024-03-23T11:30:51;95109.91;;;20.70;42.26
66486;BME280;53303;47.476;8.084;2024-03-23T11:33:17;95126.72;;;20.78;42.01
66486;BME280;53303;47.476;8.084;2024-03-23T11:35:42;95147.66;;;20.79;42.13
66486;BME280;53303;47.476;8.084;2024-03-23T11:38:18;95173.19;;;20.97;42.11
66486;BME280;53303;47.476;8.084;2024-03-23T11:40:50;95236.06;;;21.13;41.37
66486;BME280;53303;47.476;8.084;2024-03-23T11:43:20;95247.28;;;21.02;40.66
66486;BME280;53303;47.476;8.084;2024-03-23T11:45:49;95261.56;;;21.11;40.92
66486;BME280;53303;47.476;8.084;2024-03-23T11:48:21;95229.81;;;20.82;40.58
66486;BME280;53303;47.476;8.084;2024-03-23T11:50:49;95283.75;;;21.11;40.39
66486;BME280;53303;47.476;8.084;2024-03-23T11:55:44;95275.94;;;21.10;39.66
66486;BME280;53303;47.476;8.084;2024-03-23T11:58:16;95254.59;;;20.99;39.65
66486;BME280;53303;47.476;8.084;2024-03-23T12:00:49;95265.38;;;21.08;39.21
66486;BME280;53303;47.476;8.084;2024-03-23T12:03:16;95249.28;;;21.01;38.95
66486;BME280;53303;47.476;8.084;2024-03-23T12:05:50;95251.78;;;21.05;38.99
66486;BME280;53303;47.476;8.084;2024-03-23T12:13:31;95170.34;;;20.78;38.37
66486;BME280;53303;47.476;8.084;2024-03-23T12:16:17;95147.28;;;20.64;38.20
66486;BME280;53303;47.476;8.084;2024-03-23T12:18:48;95185.31;;;20.94;38.22
66486;BME280;53303;47.476;8.084;2024-03-23T12:21:16;95184.66;;;20.82;38.85
66486;BME280;53303;47.476;8.084;2024-03-23T12:23:45;95164.00;;;20.83;38.21
66486;BME280;53303;47.476;8.084;2024-03-23T12:26:14;95120.59;;;20.61;38.37
66486;BME280;53303;47.476;8.084;2024-03-23T12:28:45;95112.84;;;20.53;37.80
66486;BME280;53303;47.476;8.084;2024-03-23T12:31:15;95110.34;;;20.50;37.44
66486;BME280;53303;47.476;8.084;2024-03-23T12:33:43;95125.59;;;20.68;37.35
66486;BME280;53303;47.476;8.084;2024-03-23T12:36:09;95140.84;;;20.80;37.32
66486;BME280;53303;47.476;8.084;2024-03-23T12:38:35;95103.69;;;20.64;37.27
66486;BME280;53303;47.476;8.084;2024-03-23T12:41:00;95126.41;;;20.87;36.94
66486;BME280;53303;47.476;8.084;2024-03-23T12:43:26;95067.44;;;20.57;36.98
66486;BME280;53303;47.476;8.084;2024-03-23T12:45:51;94998.84;;;20.13;36.83
66486;BME280;53303;47.476;8.084;2024-03-23T12:48:16;95117.78;;;20.91;36.32
66486;BME280;53303;47.476;8.084;2024-03-23T12:50:46;95032.38;;;20.34;36.23
66486;BME280;53303;47.476;8.084;2024-03-23T12:53:12;95095.84;;;20.68;36.36
66486;BME280;53303;47.476;8.084;2024-03-23T12:55:37;95132.53;;;20.80;36.32
66486;BME280;53303;47.476;8.084;2024-03-23T12:58:03;95144.19;;;20.73;36.44
66486;BME280;53303;47.476;8.084;2024-03-23T13:00:32;95118.53;;;20.67;36.50
66486;BME280;53303;47.476;8.084;2024-03-23T13:03:00;95111.78;;;20.57;36.75
66486;BME280;53303;47.476;8.084;2024-03-23T13:05:25;95106.22;;;20.62;36.58
66486;BME280;53303;47.476;8.084;2024-03-23T13:07:50;95119.47;;;20.75;36.68
66486;BME280;53303;47.476;8.084;2024-03-23T13:10:16;95110.66;;;20.71;37.01
66486;BME280;53303;47.476;8.084;2024-03-23T13:12:44;95076.03;;;20.53;37.22
66486;BME280;53303;47.476;8.084;2024-03-23T13:15:09;95099.69;;;20.84;37.20
66486;BME280;53303;47.476;8.084;2024-03-23T13:17:35;95074.88;;;20.73;37.67
66486;BME280;53303;47.476;8.084;2024-03-23T13:20:00;95070.31;;;20.76;37.57
66486;BME280;53303;47.476;8.084;2024-03-23T13:22:28;95071.53;;;20.80;37.68
66486;BME280;53303;47.476;8.084;2024-03-23T13:24:58;95063.53;;;20.71;37.78
66486;BME280;53303;47.476;8.084;2024-03-23T13:27:26;95105.19;;;20.90;38.05
66486;BME280;53303;47.476;8.084;2024-03-23T13:29:52;95063.41;;;20.58;37.81
66486;BME280;53303;47.476;8.084;2024-03-23T13:32:17;95041.06;;;20.50;38.13
66486;BME280;53303;47.476;8.084;2024-03-23T13:34:45;94992.03;;;20.14;38.03
66486;BME280;53303;47.476;8.084;2024-03-23T13:37:10;95070.13;;;20.68;38.17
66486;BME280;53303;47.476;8.084;2024-03-23T13:39:37;95062.19;;;20.53;38.33
66486;BME280;53303;47.476;8.084;2024-03-23T13:42:03;95102.94;;;20.88;38.43
66486;BME280;53303;47.476;8.084;2024-03-23T13:44:31;95104.78;;;20.80;38.42
66486;BME280;53303;47.476;8.084;2024-03-23T13:46:56;95098.69;;;20.82;38.48
66486;BME280;53303;47.476;8.084;2024-03-23T13:49:32;95107.44;;;20.91;38.51
66486;BME280;53303;47.476;8.084;2024-03-23T13:52:01;95029.78;;;20.42;38.71
66486;BME280;53303;47.476;8.084;2024-03-23T13:54:35;95102.94;;;20.88;38.73
66486;BME280;53303;47.476;8.084;2024-03-23T13:57:01;95024.75;;;20.41;38.69
66486;BME280;53303;47.476;8.084;2024-03-23T13:59:29;94932.19;;;19.81;38.87
66486;BME280;53303;47.476;8.084;2024-03-23T14:02:18;94893.66;;;19.53;39.15
66486;BME280;53303;47.476;8.084;2024-03-23T14:05:03;94908.88;;;19.65;39.10
66486;BME280;53303;47.476;8.084;2024-03-23T14:07:36;95032.50;;;20.48;38.95
66486;BME280;53303;47.476;8.084;2024-03-23T14:10:10;95074.97;;;20.86;39.31
66486;BME280;53303;47.476;8.084;2024-03-23T14:12:36;95059.13;;;20.81;39.20
66486;BME280;53303;47.476;8.084;2024-03-23T14:15:06;95052.78;;;20.86;39.46
66486;BME280;53303;47.476;8.084;2024-03-23T14:17:32;95061.84;;;20.87;39.41
66486;BME280;53303;47.476;8.084;2024-03-23T14:19:58;95052.63;;;20.79;39.57